Time;durP1;ratioP1;P1;durP2;ratioP2;P2;SDS_P1;SDS_P2;PMS_P1;PMS_P2;Temp;Humidity;BMP_temperature;BMP_pressure;BME280_temperature;BME280_humidity;BME280_pressure;Samples;Min_cycle;Max_cycle;Signal;HPM_P1;HPM_P2
2021/11/13 00:01:41;;;;;;;55.80;23.47;;;8.10;72.30;;;;;;5036933;28;20052;-81
2021/11/13 00:04:06;;;;;;;63.70;22.87;;;8.10;72.20;;;;;;5034069;28;20103;-81
2021/11/13 00:06:32;;;;;;;56.27;23.70;;;8.10;72.20;;;;;;5058199;28;20037;-81
2021/11/13 00:08:58;;;;;;;46.83;19.97;;;8.10;72.10;;;;;;5041561;28;20032;-81
2021/11/13 00:11:24;;;;;;;66.13;23.17;;;8.10;72.00;;;;;;5054482;28;20104;-81
2021/11/13 00:13:54;;;;;;;79.50;24.57;;;8.10;71.70;;;;;;5035093;28;20024;-81
2021/11/13 00:16:20;;;;;;;99.83;25.77;;;8.10;71.60;;;;;;5045546;28;20116;-81
2021/11/13 00:18:47;;;;;;;137.13;27.10;;;8.00;71.70;;;;;;5042899;28;20634;-81
2021/11/13 00:21:13;;;;;;;117.53;29.37;;;8.00;72.10;;;;;;5059495;28;20018;-81
2021/11/13 00:23:39;;;;;;;120.47;31.87;;;8.00;72.10;;;;;;5062197;28;20021;-81
2021/11/13 00:26:05;;;;;;;93.60;29.87;;;8.00;72.10;;;;;;5044935;28;20055;-81
2021/11/13 00:28:30;;;;;;;85.10;29.87;;;8.00;72.10;;;;;;5052680;28;20041;-81
2021/11/13 00:30:56;;;;;;;78.50;27.00;;;8.00;72.20;;;;;;5040166;28;20479;-81
2021/11/13 00:33:22;;;;;;;92.77;29.33;;;8.00;72.50;;;;;;5046747;28;20028;-81
2021/11/13 00:35:48;;;;;;;88.90;28.53;;;8.00;72.30;;;;;;5035412;28;20021;-81
2021/11/13 00:38:13;;;;;;;124.13;28.83;;;8.00;72.30;;;;;;5056989;28;20029;-81
2021/11/13 00:40:40;;;;;;;78.10;26.03;;;8.00;72.40;;;;;;5057613;28;20017;-81
2021/11/13 00:43:05;;;;;;;646.83;51.53;;;7.90;72.60;;;;;;5054437;28;20107;-81
2021/11/13 00:45:31;;;;;;;63.40;22.73;;;7.90;72.90;;;;;;5051248;28;20108;-81
2021/11/13 00:47:57;;;;;;;65.33;22.53;;;7.90;73.20;;;;;;5049558;28;20029;-81
2021/11/13 00:50:23;;;;;;;58.40;23.50;;;8.00;72.60;;;;;;5054752;28;20044;-81
2021/11/13 00:52:49;;;;;;;74.80;27.37;;;8.00;72.30;;;;;;5048046;28;20031;-81
2021/11/13 00:55:18;;;;;;;89.03;28.83;;;8.00;72.20;;;;;;5034852;28;20032;-81
2021/11/13 00:57:44;;;;;;;86.23;30.07;;;8.00;72.40;;;;;;5042133;28;20028;-81
2021/11/13 01:00:12;;;;;;;87.40;28.87;;;8.00;72.30;;;;;;5034771;28;20033;-81
2021/11/13 01:02:39;;;;;;;85.30;28.63;;;8.00;72.10;;;;;;5047343;28;20021;-81
2021/11/13 01:05:05;;;;;;;90.60;27.73;;;7.90;72.20;;;;;;5045401;28;20525;-81
2021/11/13 01:07:31;;;;;;;100.90;28.93;;;7.90;72.50;;;;;;5055423;28;20025;-81
2021/11/13 01:09:57;;;;;;;95.60;29.40;;;7.90;72.60;;;;;;5032732;28;20021;-82
2021/11/13 01:12:23;;;;;;;101.77;29.40;;;7.90;72.50;;;;;;5040285;28;20345;-81
2021/11/13 01:14:50;;;;;;;101.10;29.97;;;7.80;72.50;;;;;;5050561;28;20624;-81
2021/11/13 01:17:16;;;;;;;117.30;27.70;;;7.80;72.80;;;;;;5058170;28;20391;-81
2021/11/13 01:19:45;;;;;;;123.17;30.37;;;7.80;72.80;;;;;;5045242;28;20020;-81
2021/11/13 01:22:11;;;;;;;114.60;31.60;;;7.80;72.90;;;;;;5051054;28;20044;-81
2021/11/13 01:24:38;;;;;;;100.83;32.63;;;7.90;72.80;;;;;;5049566;28;20465;-81
2021/11/13 01:27:04;;;;;;;89.47;28.87;;;7.90;72.70;;;;;;5051724;28;20025;-80
2021/11/13 01:29:31;;;;;;;99.77;31.03;;;7.80;73.00;;;;;;5053647;28;20059;-81
2021/11/13 01:31:56;;;;;;;103.23;30.77;;;7.80;72.90;;;;;;5052180;28;20031;-81
2021/11/13 01:34:22;;;;;;;93.70;30.10;;;7.80;73.20;;;;;;5061941;28;20032;-81
2021/11/13 01:36:48;;;;;;;91.60;29.70;;;7.80;73.10;;;;;;5050404;28;20806;-81
2021/11/13 01:39:14;;;;;;;103.80;31.23;;;7.80;72.90;;;;;;5040587;28;20028;-81
2021/11/13 01:41:40;;;;;;;105.23;32.60;;;7.80;72.90;;;;;;5034718;28;20025;-81
2021/11/13 01:44:07;;;;;;;147.13;32.57;;;7.70;73.00;;;;;;5045128;28;20031;-81
2021/11/13 01:46:33;;;;;;;73.43;25.53;;;7.70;73.20;;;;;;5031719;28;20025;-81
2021/11/13 01:48:59;;;;;;;92.20;28.13;;;7.70;73.10;;;;;;5047010;28;20107;-81
2021/11/13 01:51:28;;;;;;;72.47;26.03;;;7.70;73.40;;;;;;5059149;28;20452;-81
2021/11/13 01:53:57;;;;;;;75.57;26.47;;;7.70;73.40;;;;;;5028203;28;20607;-81
2021/11/13 01:56:24;;;;;;;70.47;25.57;;;7.70;73.40;;;;;;5072054;28;20055;-81
2021/11/13 01:58:56;;;;;;;72.53;28.67;;;7.70;73.30;;;;;;5043029;28;20372;-81
2021/11/13 02:01:23;;;;;;;92.78;28.17;;;7.70;73.10;;;;;;5034198;28;20029;-81
2021/11/13 02:03:50;;;;;;;97.83;31.27;;;7.70;73.10;;;;;;5044321;28;20057;-81
2021/11/13 02:06:19;;;;;;;95.87;29.73;;;7.80;73.10;;;;;;5037884;28;20031;-81
2021/11/13 02:08:46;;;;;;;108.00;28.90;;;7.80;73.00;;;;;;5033593;28;20509;-81
2021/11/13 02:11:16;;;;;;;115.30;27.97;;;7.70;73.00;;;;;;5036414;28;20052;-81
2021/11/13 02:13:42;;;;;;;103.97;30.37;;;7.70;73.20;;;;;;5057413;28;20040;-81
2021/11/13 02:16:08;;;;;;;103.83;32.87;;;7.70;73.40;;;;;;5049821;28;20077;-81
2021/11/13 02:18:39;;;;;;;91.90;31.07;;;7.70;73.30;;;;;;5047096;28;20059;-81
2021/11/13 02:21:06;;;;;;;83.63;22.43;;;7.70;73.40;;;;;;5059325;28;20096;-81
2021/11/13 02:23:33;;;;;;;65.97;23.00;;;7.70;73.40;;;;;;5066033;28;20111;-81
2021/11/13 02:25:58;;;;;;;59.60;21.03;;;7.70;73.30;;;;;;5040704;28;20021;-81
2021/11/13 02:28:26;;;;;;;54.07;20.93;;;7.70;73.40;;;;;;5056176;28;20379;-81
2021/11/13 02:30:55;;;;;;;65.70;21.47;;;7.70;73.70;;;;;;5057881;28;20029;-81
2021/11/13 02:33:22;;;;;;;60.63;20.60;;;7.70;73.70;;;;;;5023638;28;20052;-81
2021/11/13 02:35:50;;;;;;;81.80;21.23;;;7.70;73.40;;;;;;5034200;28;20047;-81
2021/11/13 02:38:22;;;;;;;42.33;18.20;;;7.70;73.50;;;;;;5038013;28;20556;-81
2021/11/13 02:40:50;;;;;;;57.47;15.93;;;7.70;73.50;;;;;;5060829;28;20034;-81
2021/11/13 02:43:17;;;;;;;72.17;14.60;;;7.60;73.50;;;;;;5040313;28;20033;-81
2021/11/13 02:45:45;;;;;;;33.83;14.53;;;7.60;73.80;;;;;;5055885;28;20017;-81
2021/11/13 02:48:12;;;;;;;39.90;13.63;;;7.60;74.00;;;;;;5050529;28;20032;-81
2021/11/13 02:50:38;;;;;;;35.37;14.33;;;7.60;74.20;;;;;;5038814;28;20383;-81
2021/11/13 02:53:15;;;;;;;34.97;13.57;;;7.50;74.10;;;;;;5054247;28;20471;-81
2021/11/13 02:55:41;;;;;;;41.77;13.10;;;7.50;74.20;;;;;;5052990;28;20418;-81
2021/11/13 02:58:07;;;;;;;44.37;13.70;;;7.60;74.20;;;;;;5038066;28;20023;-81
2021/11/13 03:00:34;;;;;;;42.50;12.93;;;7.60;74.30;;;;;;5053512;28;20028;-81
2021/11/13 03:02:59;;;;;;;55.73;13.67;;;7.50;74.30;;;;;;5051167;28;20017;-80
2021/11/13 03:05:30;;;;;;;32.57;12.37;;;7.50;74.50;;;;;;5064535;28;20023;-81
2021/11/13 03:07:59;;;;;;;63.47;14.03;;;7.40;74.80;;;;;;5052089;28;20420;-81
2021/11/13 03:10:27;;;;;;;32.87;12.87;;;7.40;74.40;;;;;;5047400;28;20037;-81
2021/11/13 03:12:53;;;;;;;37.73;12.80;;;7.30;74.60;;;;;;5040896;28;20486;-81
2021/11/13 03:15:21;;;;;;;41.03;13.73;;;7.40;74.80;;;;;;5043284;28;20033;-81
2021/11/13 03:17:48;;;;;;;49.17;13.20;;;7.30;74.80;;;;;;5041069;28;20036;-81
2021/11/13 03:20:21;;;;;;;56.60;12.83;;;7.40;74.80;;;;;;5059222;28;20406;-80
2021/11/13 03:22:48;;;;;;;37.17;11.87;;;7.30;74.60;;;;;;5035694;28;20456;-81
2021/11/13 03:25:20;;;;;;;38.33;12.43;;;7.30;74.60;;;;;;5048325;28;20455;-81
2021/11/13 03:27:50;;;;;;;36.58;12.77;;;7.40;74.50;;;;;;5026909;28;20083;-81
2021/11/13 03:30:16;;;;;;;33.33;13.43;;;7.30;74.50;;;;;;5036728;28;20560;-81
2021/11/13 03:32:42;;;;;;;27.27;11.37;;;7.30;74.70;;;;;;5016606;28;20033;-80
2021/11/13 03:35:09;;;;;;;32.20;12.00;;;7.30;75.10;;;;;;5013030;28;20030;-81
2021/11/13 03:37:35;;;;;;;61.13;14.17;;;7.30;74.80;;;;;;5008566;28;20026;-81
2021/11/13 03:40:02;;;;;;;39.37;13.47;;;7.30;74.70;;;;;;5020911;28;20025;-81
2021/11/13 03:42:31;;;;;;;25.07;13.50;;;7.40;75.10;;;;;;5015427;28;20468;-81
2021/11/13 03:45:00;;;;;;;22.77;12.77;;;7.40;74.80;;;;;;5033688;28;20022;-81
2021/11/13 03:47:26;;;;;;;26.97;13.73;;;7.40;74.90;;;;;;5016470;28;20029;-81
2021/11/13 03:49:52;;;;;;;87.60;18.10;;;7.50;74.70;;;;;;5015132;28;20059;-81
2021/11/13 03:52:17;;;;;;;22.40;11.97;;;7.50;74.60;;;;;;5017034;28;20052;-81
2021/11/13 03:54:43;;;;;;;21.53;13.17;;;7.40;74.60;;;;;;5027939;28;20036;-81
2021/11/13 03:57:09;;;;;;;21.20;13.47;;;7.40;74.60;;;;;;5023801;28;20056;-81
2021/11/13 03:59:34;;;;;;;25.67;13.30;;;7.40;74.50;;;;;;5009714;28;20024;-81
2021/11/13 04:02:01;;;;;;;34.60;11.70;;;7.40;74.60;;;;;;5033480;28;20022;-81
2021/11/13 04:04:27;;;;;;;22.87;11.87;;;7.40;74.30;;;;;;5015861;28;20075;-81
2021/11/13 04:06:52;;;;;;;19.83;11.07;;;7.40;74.40;;;;;;5033377;28;20041;-81
2021/11/13 04:09:18;;;;;;;21.20;10.10;;;7.40;74.50;;;;;;5014775;28;20025;-81
2021/11/13 04:11:44;;;;;;;22.07;9.27;;;7.40;74.60;;;;;;5012584;28;20036;-81
2021/11/13 04:14:10;;;;;;;46.90;11.17;;;7.40;74.30;;;;;;5032503;28;20032;-81
2021/11/13 04:16:36;;;;;;;18.73;11.90;;;7.30;74.10;;;;;;5006530;28;20392;-81
2021/11/13 04:19:02;;;;;;;20.87;10.33;;;7.30;74.30;;;;;;5016439;28;20045;-81
2021/11/13 04:21:28;;;;;;;23.90;11.87;;;7.30;74.30;;;;;;5032311;28;20033;-81
2021/11/13 04:23:53;;;;;;;99.17;14.47;;;7.30;74.30;;;;;;5014400;28;20099;-81
2021/11/13 04:26:19;;;;;;;33.53;10.73;;;7.30;74.50;;;;;;5007477;28;20039;-81
2021/11/13 04:28:47;;;;;;;63.10;11.47;;;7.30;74.50;;;;;;5029457;28;20439;-81
2021/11/13 04:31:13;;;;;;;42.07;11.60;;;7.30;74.30;;;;;;5068920;28;20438;-81
2021/11/13 04:33:39;;;;;;;23.77;11.27;;;7.20;74.80;;;;;;5053869;28;20021;-81
2021/11/13 04:36:19;;;;;;;20.17;10.70;;;7.20;74.80;;;;;;5020192;28;20047;-81
2021/11/13 04:38:45;;;;;;;59.80;11.20;;;7.30;74.70;;;;;;5060686;28;20039;-81
2021/11/13 04:41:11;;;;;;;53.40;11.10;;;7.30;74.60;;;;;;5044918;28;20107;-81
2021/11/13 04:43:36;;;;;;;42.47;14.03;;;7.30;74.60;;;;;;5041845;28;20043;-81
2021/11/13 04:46:02;;;;;;;28.80;12.70;;;7.30;74.50;;;;;;5055909;28;20036;-81
2021/11/13 04:48:28;;;;;;;78.00;16.13;;;7.10;74.90;;;;;;5053284;28;20112;-81
2021/11/13 04:50:57;;;;;;;57.60;15.90;;;7.10;74.80;;;;;;5036753;28;20017;-81
2021/11/13 04:53:23;;;;;;;34.73;14.60;;;7.10;74.80;;;;;;5056220;28;20469;-81
2021/11/13 04:55:49;;;;;;;34.47;13.90;;;7.10;74.90;;;;;;5040559;28;20028;-81
2021/11/13 04:58:15;;;;;;;37.10;11.90;;;7.10;75.00;;;;;;5040338;28;20021;-81
2021/11/13 05:00:41;;;;;;;25.97;11.63;;;7.10;75.00;;;;;;5051203;28;20476;-81
2021/11/13 05:03:06;;;;;;;35.83;11.73;;;7.10;75.10;;;;;;5032340;28;20025;-81
2021/11/13 05:05:32;;;;;;;33.10;11.40;;;7.10;75.10;;;;;;5030777;28;20388;-81
2021/11/13 05:07:58;;;;;;;16.10;9.70;;;7.20;75.10;;;;;;5055213;28;20028;-81
2021/11/13 05:10:24;;;;;;;20.90;10.73;;;7.20;75.30;;;;;;5031909;28;20472;-81
2021/11/13 05:12:50;;;;;;;22.83;12.63;;;7.30;75.30;;;;;;5052023;28;20029;-81
2021/11/13 05:15:16;;;;;;;32.37;12.90;;;7.30;75.20;;;;;;5054206;28;20040;-81
2021/11/13 05:17:43;;;;;;;29.97;14.03;;;7.30;75.20;;;;;;5033727;28;20035;-81
2021/11/13 05:20:12;;;;;;;30.83;12.50;;;7.30;75.20;;;;;;5051488;28;20021;-81
2021/11/13 05:22:40;;;;;;;22.10;11.60;;;7.30;75.20;;;;;;5033892;28;20396;-81
2021/11/13 05:25:08;;;;;;;27.40;11.97;;;7.40;75.10;;;;;;5038101;28;20032;-81
2021/11/13 05:27:35;;;;;;;29.47;13.80;;;7.40;75.00;;;;;;5050345;28;20037;-81
2021/11/13 05:30:01;;;;;;;30.93;13.37;;;7.40;74.70;;;;;;5052445;28;20044;-81
2021/11/13 05:32:27;;;;;;;30.23;13.17;;;7.30;74.70;;;;;;5040920;28;20602;-81
2021/11/13 05:34:53;;;;;;;29.07;11.37;;;7.30;74.70;;;;;;5070566;28;20240;-81
2021/11/13 05:37:18;;;;;;;21.03;10.20;;;7.30;74.70;;;;;;5033421;28;20115;-81
2021/11/13 05:39:44;;;;;;;16.90;9.57;;;7.30;74.90;;;;;;5031823;28;20040;-81
2021/11/13 05:42:10;;;;;;;55.93;13.53;;;7.30;74.90;;;;;;5050889;28;20024;-81
2021/11/13 05:44:36;;;;;;;31.83;14.47;;;7.30;74.90;;;;;;5030290;28;20052;-81
2021/11/13 05:47:03;;;;;;;30.70;12.30;;;7.30;75.20;;;;;;5037797;28;20436;-81
2021/11/13 05:49:29;;;;;;;17.93;11.53;;;7.30;75.10;;;;;;5034359;28;20042;-81
2021/11/13 05:51:55;;;;;;;30.23;9.37;;;7.30;75.10;;;;;;5037745;28;20141;-81
2021/11/13 05:54:21;;;;;;;21.07;9.67;;;7.30;74.90;;;;;;5055208;28;20065;-81
2021/11/13 05:56:47;;;;;;;16.67;9.37;;;7.30;74.80;;;;;;5040028;28;20029;-81
2021/11/13 05:59:13;;;;;;;27.70;11.83;;;7.20;74.80;;;;;;5044814;28;20033;-81
2021/11/13 06:01:39;;;;;;;23.67;10.27;;;7.30;74.80;;;;;;5048742;28;20036;-81
2021/11/13 06:04:04;;;;;;;36.30;10.23;;;7.30;74.40;;;;;;5053718;28;20030;-81
2021/11/13 06:06:30;;;;;;;38.50;10.13;;;7.30;74.40;;;;;;5053293;28;20024;-81
2021/11/13 06:08:56;;;;;;;59.40;11.00;;;7.20;74.40;;;;;;5046777;28;20549;-81
2021/11/13 06:11:22;;;;;;;36.73;10.77;;;7.20;74.70;;;;;;5050487;28;20050;-81
2021/11/13 06:13:47;;;;;;;20.37;10.27;;;7.10;74.90;;;;;;5041592;28;20044;-81
2021/11/13 06:16:13;;;;;;;21.40;9.93;;;7.10;75.00;;;;;;5066382;28;20136;-81
2021/11/13 06:18:39;;;;;;;16.77;9.83;;;7.20;75.00;;;;;;5016790;28;20048;-81
2021/11/13 06:21:06;;;;;;;14.10;9.27;;;7.20;75.00;;;;;;5037631;28;20032;-81
2021/11/13 06:23:33;;;;;;;28.17;10.33;;;7.30;75.00;;;;;;5053679;28;20029;-81
2021/11/13 06:26:00;;;;;;;20.43;9.77;;;7.30;74.80;;;;;;5032428;28;20032;-81
2021/11/13 06:28:25;;;;;;;27.33;11.40;;;7.30;74.90;;;;;;5050388;28;20384;-81
2021/11/13 06:30:51;;;;;;;54.70;12.40;;;7.20;74.90;;;;;;5055989;28;20030;-81
2021/11/13 06:33:17;;;;;;;22.23;12.30;;;7.30;75.00;;;;;;5039955;28;20035;-81
2021/11/13 06:35:43;;;;;;;23.70;11.63;;;7.20;75.00;;;;;;5048513;28;20112;-81
2021/11/13 06:38:09;;;;;;;23.80;12.27;;;7.20;75.00;;;;;;5045822;28;20468;-81
2021/11/13 06:40:35;;;;;;;17.83;11.30;;;7.20;75.00;;;;;;5045602;28;20033;-81
2021/11/13 06:43:01;;;;;;;26.00;13.70;;;7.20;75.10;;;;;;5038950;28;20112;-81
2021/11/13 06:45:27;;;;;;;28.60;13.93;;;7.20;75.10;;;;;;5051841;28;20032;-81
2021/11/13 06:47:53;;;;;;;23.70;13.40;;;7.20;75.20;;;;;;5069460;28;20094;-81
2021/11/13 06:50:19;;;;;;;68.10;15.20;;;7.30;75.30;;;;;;5048451;28;20021;-81
2021/11/13 06:52:45;;;;;;;30.20;13.23;;;7.30;75.20;;;;;;5049061;28;20055;-81
2021/11/13 06:55:12;;;;;;;30.77;13.30;;;7.20;75.30;;;;;;5034302;28;20028;-81
2021/11/13 06:57:39;;;;;;;33.13;12.77;;;7.30;75.30;;;;;;5048832;28;20442;-81
2021/11/13 07:00:10;;;;;;;21.27;12.37;;;7.20;75.40;;;;;;5049214;28;20345;-81
2021/11/13 07:02:37;;;;;;;36.90;12.77;;;7.30;75.50;;;;;;5045430;28;20029;-81
2021/11/13 07:05:05;;;;;;;30.53;13.30;;;7.20;75.30;;;;;;5054768;28;20434;-81
2021/11/13 07:07:32;;;;;;;26.70;13.93;;;7.30;75.40;;;;;;5053082;28;20037;-81
2021/11/13 07:10:00;;;;;;;31.90;15.23;;;7.30;75.50;;;;;;5044205;28;20681;-81
2021/11/13 07:12:26;;;;;;;24.73;15.57;;;7.20;75.50;;;;;;5048596;28;20399;-81
2021/11/13 07:14:52;;;;;;;25.00;14.03;;;7.20;75.60;;;;;;5040766;28;20190;-81
2021/11/13 07:17:19;;;;;;;18.87;13.43;;;7.20;75.70;;;;;;5055363;28;20531;-81
2021/11/13 07:19:44;;;;;;;50.47;13.43;;;7.30;75.80;;;;;;5042839;28;20024;-81
2021/11/13 07:22:10;;;;;;;29.10;14.73;;;7.30;75.70;;;;;;5066666;28;20028;-81
2021/11/13 07:24:36;;;;;;;27.20;14.70;;;7.30;75.60;;;;;;5049250;28;20016;-81
2021/11/13 07:27:02;;;;;;;25.30;14.90;;;7.30;75.80;;;;;;5040284;28;20081;-81
2021/11/13 07:29:29;;;;;;;26.87;12.63;;;7.40;76.30;;;;;;5009277;28;20500;-81
2021/11/13 07:31:55;;;;;;;52.57;14.63;;;7.40;75.50;;;;;;5014521;28;20022;-81
2021/11/13 07:34:21;;;;;;;29.07;12.70;;;7.40;75.30;;;;;;5013471;28;20061;-81
2021/11/13 07:36:47;;;;;;;33.50;13.80;;;7.40;75.20;;;;;;5011265;28;20029;-81
2021/11/13 07:39:14;;;;;;;39.90;12.90;;;7.40;75.00;;;;;;5015175;28;20047;-81
2021/11/13 07:41:39;;;;;;;26.97;13.20;;;7.30;75.10;;;;;;5016797;28;20017;-81
2021/11/13 07:44:05;;;;;;;27.70;12.27;;;7.30;75.30;;;;;;5029549;28;20037;-81
2021/11/13 07:46:31;;;;;;;36.50;13.20;;;7.40;75.40;;;;;;5015937;28;20033;-81
2021/11/13 07:48:57;;;;;;;33.97;12.00;;;7.40;75.20;;;;;;5014644;28;20056;-81
2021/11/13 07:51:22;;;;;;;41.30;12.00;;;7.40;75.40;;;;;;5011921;28;20057;-81
2021/11/13 07:53:49;;;;;;;28.53;11.97;;;7.40;75.30;;;;;;5016293;28;20112;-81
2021/11/13 07:56:15;;;;;;;20.20;12.43;;;7.40;75.00;;;;;;5013252;28;20030;-81
2021/11/13 07:58:41;;;;;;;43.67;13.67;;;7.30;75.10;;;;;;5033612;28;20113;-81
2021/11/13 08:01:07;;;;;;;25.30;11.80;;;7.40;75.20;;;;;;5011331;28;20117;-81
2021/11/13 08:03:33;;;;;;;28.23;13.00;;;7.40;75.20;;;;;;5021471;28;20057;-81
2021/11/13 08:05:58;;;;;;;45.07;13.10;;;7.50;75.30;;;;;;5016602;28;20022;-81
2021/11/13 08:08:24;;;;;;;22.27;11.77;;;7.40;74.80;;;;;;5016291;28;20492;-81
2021/11/13 08:10:51;;;;;;;28.60;14.40;;;7.40;75.30;;;;;;5021676;28;20029;-81
2021/11/13 08:13:18;;;;;;;33.90;17.13;;;7.40;75.20;;;;;;5014708;28;20025;-81
2021/11/13 08:15:45;;;;;;;29.97;16.20;;;7.50;75.60;;;;;;5028586;28;20142;-81
2021/11/13 08:18:11;;;;;;;34.73;17.33;;;7.50;75.40;;;;;;5023134;28;20128;-81
2021/11/13 08:20:39;;;;;;;30.27;16.77;;;7.50;75.40;;;;;;5013286;28;20120;-81
2021/11/13 08:23:08;;;;;;;36.17;19.27;;;7.60;75.20;;;;;;5024234;28;20022;-81
2021/11/13 08:25:35;;;;;;;35.77;18.77;;;7.50;75.20;;;;;;5027444;28;20372;-81
2021/11/13 08:28:02;;;;;;;33.07;16.27;;;7.60;75.30;;;;;;5032889;28;20037;-81
2021/11/13 08:30:29;;;;;;;31.73;15.03;;;7.60;75.10;;;;;;5047745;28;20483;-81
2021/11/13 08:32:56;;;;;;;38.43;15.40;;;7.60;75.30;;;;;;5038781;28;20574;-81
2021/11/13 08:35:22;;;;;;;28.37;15.77;;;7.60;75.10;;;;;;5047563;28;20933;-81
2021/11/13 08:37:48;;;;;;;28.77;15.30;;;7.60;75.30;;;;;;5049575;28;20033;-81
2021/11/13 08:40:15;;;;;;;28.93;14.27;;;7.60;75.10;;;;;;5033664;28;20044;-81
2021/11/13 08:42:41;;;;;;;36.33;14.23;;;7.60;75.00;;;;;;5059113;28;20025;-81
2021/11/13 08:45:08;;;;;;;25.03;13.60;;;7.60;74.90;;;;;;5051681;28;20021;-81
2021/11/13 08:47:36;;;;;;;24.83;14.80;;;7.40;75.00;;;;;;5039236;28;20692;-81
2021/11/13 08:50:03;;;;;;;30.07;15.47;;;7.50;75.40;;;;;;5031643;28;20070;-81
2021/11/13 08:52:29;;;;;;;31.90;16.87;;;7.40;75.40;;;;;;5023936;28;20029;-81
2021/11/13 08:54:55;;;;;;;28.93;16.20;;;7.40;75.50;;;;;;5036388;28;20037;-81
2021/11/13 08:57:21;;;;;;;28.23;15.33;;;7.50;75.50;;;;;;5027351;28;20094;-81
2021/11/13 08:59:47;;;;;;;42.67;14.90;;;7.50;75.30;;;;;;5035073;28;20108;-81
2021/11/13 09:02:17;;;;;;;35.07;15.60;;;7.50;75.30;;;;;;5049057;28;20119;-81
2021/11/13 09:04:45;;;;;;;36.47;14.93;;;7.50;75.30;;;;;;5030065;28;20025;-81
2021/11/13 09:07:12;;;;;;;35.87;14.03;;;7.60;75.40;;;;;;5032490;28;20025;-81
2021/11/13 09:09:39;;;;;;;35.27;16.20;;;7.50;75.30;;;;;;5021982;28;20040;-81
2021/11/13 09:12:12;;;;;;;26.80;15.70;;;7.50;75.40;;;;;;5048795;28;20111;-81
2021/11/13 09:14:39;;;;;;;26.00;14.65;;;7.50;75.50;;;;;;5047324;28;20157;-81
2021/11/13 09:17:04;;;;;;;43.37;14.87;;;7.50;75.50;;;;;;5034456;28;20446;-81
2021/11/13 09:19:30;;;;;;;34.77;14.67;;;7.50;75.30;;;;;;5049368;28;20111;-81
2021/11/13 09:21:56;;;;;;;26.27;15.60;;;7.50;75.40;;;;;;5034180;28;20033;-81
2021/11/13 09:24:23;;;;;;;22.47;13.83;;;7.50;75.30;;;;;;5031658;28;20029;-81
2021/11/13 09:26:50;;;;;;;23.30;14.00;;;7.50;75.40;;;;;;5032927;28;20029;-81
2021/11/13 09:29:17;;;;;;;22.00;14.13;;;7.50;75.60;;;;;;5013825;28;20064;-81
2021/11/13 09:31:43;;;;;;;22.53;14.23;;;7.50;75.50;;;;;;5011485;28;20037;-81
2021/11/13 09:34:13;;;;;;;23.13;14.57;;;7.50;75.50;;;;;;5030211;28;20524;-81
2021/11/13 09:36:39;;;;;;;20.53;14.20;;;7.60;75.50;;;;;;5029174;28;20033;-81
2021/11/13 09:39:06;;;;;;;18.23;12.50;;;7.50;75.50;;;;;;5023531;28;20042;-80
2021/11/13 09:41:32;;;;;;;16.97;11.07;;;7.60;75.50;;;;;;5008943;28;20369;-81
2021/11/13 09:43:59;;;;;;;18.87;12.00;;;7.60;75.40;;;;;;5032603;28;20021;-82
2021/11/13 09:46:26;;;;;;;18.17;11.77;;;7.60;75.50;;;;;;5010121;28;20029;-81
2021/11/13 09:48:53;;;;;;;17.43;12.00;;;7.60;75.30;;;;;;5005595;28;20096;-81
2021/11/13 09:51:19;;;;;;;17.80;12.00;;;7.60;75.50;;;;;;5009668;28;20029;-81
2021/11/13 09:53:46;;;;;;;19.47;11.50;;;7.70;75.30;;;;;;5018033;28;20033;-81
2021/11/13 09:56:12;;;;;;;19.53;11.40;;;7.80;75.20;;;;;;5004340;28;20409;-81
2021/11/13 09:58:38;;;;;;;17.77;11.40;;;7.80;75.10;;;;;;5026750;28;20452;-81
2021/11/13 10:01:05;;;;;;;20.13;12.40;;;7.80;75.10;;;;;;5028176;28;20029;-81
2021/11/13 10:03:31;;;;;;;18.87;12.10;;;7.80;75.00;;;;;;5024591;28;20026;-81
2021/11/13 10:06:01;;;;;;;19.87;13.63;;;7.80;75.10;;;;;;5010563;28;20112;-81
2021/11/13 10:08:27;;;;;;;30.77;17.80;;;7.90;75.00;;;;;;5005286;28;20481;-81
2021/11/13 10:11:04;;;;;;;30.73;17.47;;;7.90;74.90;;;;;;5030127;28;20040;-81
2021/11/13 10:13:34;;;;;;;25.40;16.40;;;7.90;74.70;;;;;;5011980;28;20543;-81
2021/11/13 10:16:09;;;;;;;25.37;16.33;;;7.90;75.00;;;;;;5021948;28;20190;-81
2021/11/13 10:18:42;;;;;;;25.23;17.23;;;7.90;75.20;;;;;;5023734;28;20456;-81
2021/11/13 10:21:18;;;;;;;28.90;19.43;;;7.90;75.20;;;;;;5030175;28;20460;-81
2021/11/13 10:24:01;;;;;;;33.10;20.70;;;8.00;75.20;;;;;;5029974;28;20028;-81
2021/11/13 10:26:35;;;;;;;29.27;18.33;;;8.00;75.60;;;;;;5028067;28;20022;-81
2021/11/13 10:29:08;;;;;;;28.67;18.07;;;8.00;75.30;;;;;;5017999;28;20045;-81
2021/11/13 10:31:37;;;;;;;31.30;19.90;;;8.10;75.20;;;;;;5032869;28;20032;-81
2021/11/13 10:34:07;;;;;;;30.77;20.00;;;8.20;75.20;;;;;;5012149;28;20034;-81
2021/11/13 10:36:40;;;;;;;38.30;22.53;;;8.30;75.30;;;;;;5030141;28;20045;-81
2021/11/13 10:39:13;;;;;;;38.77;24.23;;;8.40;75.10;;;;;;5036454;28;20021;-81
2021/11/13 10:42:00;;;;;;;33.63;21.93;;;8.50;75.10;;;;;;5052235;28;20036;-81
2021/11/13 10:44:27;;;;;;;32.10;20.97;;;8.50;74.70;;;;;;5033241;28;20022;-81
2021/11/13 10:46:53;;;;;;;36.10;22.47;;;8.60;74.90;;;;;;5035710;28;20051;-81
2021/11/13 10:49:19;;;;;;;34.43;22.27;;;8.60;74.50;;;;;;5029251;28;20488;-81
2021/11/13 10:51:57;;;;;;;38.60;23.37;;;8.70;74.50;;;;;;5003384;28;20080;-81
2021/11/13 10:54:23;;;;;;;37.37;25.47;;;8.70;74.50;;;;;;5035820;28;20395;-81
2021/11/13 10:56:56;;;;;;;33.60;22.20;;;8.70;74.50;;;;;;5016059;28;20611;-81
2021/11/13 10:59:38;;;;;;;34.10;20.83;;;8.80;74.40;;;;;;5034460;28;20029;-81
2021/11/13 11:02:10;;;;;;;30.95;20.10;;;8.90;74.40;;;;;;5034246;28;20043;-81
2021/11/13 11:04:39;;;;;;;36.40;21.20;;;9.00;74.10;;;;;;5035017;28;20049;-81
2021/11/13 11:07:16;;;;;;;32.20;20.50;;;9.30;74.80;;;;;;5018085;28;20052;-81
2021/11/13 11:09:41;;;;;;;28.87;19.07;;;9.50;74.10;;;;;;5039143;28;20057;-81
2021/11/13 11:12:17;;;;;;;27.93;19.00;;;9.60;73.80;;;;;;5046055;28;20064;-81
2021/11/13 11:14:47;;;;;;;27.83;19.33;;;9.60;73.50;;;;;;5035074;28;20413;-81
2021/11/13 11:17:19;;;;;;;29.60;18.43;;;9.70;73.40;;;;;;5035088;28;20029;-81
2021/11/13 11:19:48;;;;;;;25.80;17.27;;;9.70;73.30;;;;;;5034877;28;20018;-81
2021/11/13 11:22:16;;;;;;;25.23;16.90;;;9.80;73.40;;;;;;5032811;28;20013;-81
2021/11/13 11:24:46;;;;;;;26.43;17.83;;;9.90;73.10;;;;;;5010175;28;20034;-81
2021/11/13 11:27:34;;;;;;;24.10;16.53;;;9.80;72.40;;;;;;5034160;28;20255;-81
2021/11/13 11:30:13;;;;;;;24.40;17.00;;;9.90;72.70;;;;;;5049070;28;20384;-81
2021/11/13 11:32:40;;;;;;;23.73;17.20;;;9.90;72.80;;;;;;5054394;28;20053;-81
2021/11/13 11:35:15;;;;;;;22.20;14.90;;;9.90;72.50;;;;;;5038240;28;20030;-81
2021/11/13 11:37:45;;;;;;;29.50;17.43;;;9.90;72.70;;;;;;5022699;28;20057;-81
2021/11/13 11:40:20;;;;;;;24.33;17.17;;;9.90;72.70;;;;;;5036158;28;20403;-81
2021/11/13 11:42:50;;;;;;;28.03;19.17;;;10.00;72.70;;;;;;5028193;28;20124;-82
2021/11/13 11:45:22;;;;;;;27.43;19.17;;;10.00;72.60;;;;;;5016607;28;20026;-81
2021/11/13 11:47:49;;;;;;;28.17;18.87;;;10.10;72.50;;;;;;5017009;28;20025;-81
2021/11/13 11:50:24;;;;;;;28.43;17.37;;;10.10;72.50;;;;;;5022855;28;20025;-81
2021/11/13 11:52:55;;;;;;;27.70;16.23;;;10.30;72.50;;;;;;5053126;28;20029;-81
2021/11/13 11:55:21;;;;;;;25.23;17.00;;;10.40;72.20;;;;;;5034188;28;20061;-82
2021/11/13 11:57:56;;;;;;;26.63;16.17;;;10.60;72.10;;;;;;5034966;28;20048;-82
2021/11/13 12:00:24;;;;;;;23.33;16.53;;;10.80;72.00;;;;;;5035586;28;20120;-81
2021/11/13 12:02:57;;;;;;;21.43;16.23;;;10.80;71.50;;;;;;5050739;28;20644;-81
2021/11/13 12:05:31;;;;;;;22.20;15.87;;;10.80;71.40;;;;;;5038827;28;20033;-81
2021/11/13 12:07:58;;;;;;;21.37;13.80;;;10.80;71.40;;;;;;5040790;28;20028;-81
2021/11/13 12:10:29;;;;;;;21.63;15.40;;;10.80;71.40;;;;;;5056081;28;20476;-81
2021/11/13 12:13:10;;;;;;;21.63;15.43;;;10.80;71.20;;;;;;5056283;28;20487;-81
2021/11/13 12:15:47;;;;;;;22.10;15.37;;;10.90;71.10;;;;;;5043836;28;20380;-82
2021/11/13 12:18:27;;;;;;;24.67;15.27;;;11.10;71.00;;;;;;5033228;28;20125;-81
2021/11/13 12:21:14;;;;;;;23.33;15.57;;;11.10;70.70;;;;;;5048676;28;20461;-81
2021/11/13 12:23:46;;;;;;;24.70;14.40;;;11.30;70.60;;;;;;5051369;28;20524;-81
2021/11/13 12:26:22;;;;;;;18.70;12.90;;;11.40;70.60;;;;;;5054074;28;20108;-81
2021/11/13 12:28:47;;;;;;;19.47;11.50;;;11.50;70.30;;;;;;5051076;28;20412;-81
2021/11/13 12:31:43;;;;;;;15.50;11.00;;;11.50;70.30;;;;;;5048374;28;20034;-81
2021/11/13 12:34:13;;;;;;;19.03;11.67;;;11.60;70.20;;;;;;5057448;28;20380;-81
2021/11/13 12:37:05;;;;;;;15.50;11.93;;;11.70;70.20;;;;;;5058737;28;20036;-81
2021/11/13 12:39:54;;;;;;;15.63;10.57;;;11.70;70.10;;;;;;5027689;28;20119;-81